Time,TemperatureF,DewpointF,PressureIn,WindDirection,WindDirectionDegrees,WindSpeedMPH,WindSpeedGustMPH,Humidity,HourlyPrecipIn,Conditions,Clouds,dailyrainin,SoftwareType,DateUTC
2013-03-10 00:03:00,48.5,20.0,30.20,West,278,4.0,13.0,33,0.00,,,0.00,weatherlink.com 1.10,2013-03-10 05:03:00,
2013-03-10 00:21:00,48.4,21.0,30.20,NW,316,5.0,12.0,34,0.00,,,0.00,weatherlink.com 1.10,2013-03-10 05:21:00,
2013-03-10 00:40:00,49.0,19.0,30.20,WNW,298,3.0,13.0,31,0.00,,,0.00,weatherlink.com 1.10,2013-03-10 05:40:00,
2013-03-10 00:58:00,48.9,19.0,30.20,WNW,284,5.0,13.0,31,0.00,,,0.00,weatherlink.com 1.10,2013-03-10 05:58:00,
2013-03-10 01:18:00,49.1,19.0,30.19,NW,318,8.0,13.0,31,0.00,,,0.00,weatherlink.com 1.10,2013-03-10 06:18:00,
2013-03-10 01:36:00,49.4,19.0,30.19,WSW,246,6.0,10.0,30,0.00,,,0.00,weatherlink.com 1.10,2013-03-10 06:36:00,
2013-03-10 01:54:00,49.5,19.0,30.18,NW,317,12.0,15.0,30,0.00,,,0.00,weatherlink.com 1.10,2013-03-10 06:54:00,
2013-03-10 03:14:00,49.1,19.0,30.18,ENE,65,3.0,13.0,31,0.00,,,0.00,weatherlink.com 1.10,2013-03-10 07:14:00,
2013-03-10 03:32:00,48.9,19.0,30.17,SE,142,1.0,10.0,31,0.00,,,0.00,weatherlink.com 1.10,2013-03-10 07:32:00,
2013-03-10 03:50:00,49.1,19.0,30.17,WNW,297,1.0,7.0,31,0.00,,,0.00,weatherlink.com 1.10,2013-03-10 07:50:00,
2013-03-10 04:10:00,48.5,19.0,30.18,North,351,3.0,10.0,31,0.00,,,0.00,weatherlink.com 1.10,2013-03-10 08:10:00,
2013-03-10 04:28:00,48.4,20.0,30.17,WSW,238,2.0,9.0,32,0.00,,,0.00,weatherlink.com 1.10,2013-03-10 08:28:00,
2013-03-10 04:46:00,48.6,19.0,30.16,NW,323,2.0,9.0,31,0.00,,,0.00,weatherlink.com 1.10,2013-03-10 08:46:00,
2013-03-10 05:04:00,49.1,19.0,30.15,NW,324,6.0,13.0,30,0.00,,,0.00,weatherlink.com 1.10,2013-03-10 09:04:00,
2013-03-10 05:24:00,49.8,19.0,30.16,NW,304,2.0,14.0,29,0.00,,,0.00,weatherlink.com 1.10,2013-03-10 09:24:00,
2013-03-10 05:42:00,49.9,19.0,30.15,West,277,3.0,14.0,30,0.00,,,0.00,weatherlink.com 1.10,2013-03-10 09:42:00,
2013-03-10 06:00:00,49.5,19.0,30.15,NW,312,3.0,13.0,30,0.00,,,0.00,weatherlink.com 1.10,2013-03-10 10:00:00,
2013-03-10 06:20:00,49.3,20.0,30.16,NW,304,5.0,11.0,31,0.00,,,0.00,weatherlink.com 1.10,2013-03-10 10:20:00,
2013-03-10 06:38:00,49.1,19.0,30.16,North,350,1.0,14.0,31,0.00,,,0.00,weatherlink.com 1.10,2013-03-10 10:38:00,
2013-03-10 06:56:00,49.2,20.0,30.16,WNW,285,6.0,8.0,31,0.00,,,0.00,weatherlink.com 1.10,2013-03-10 10:56:00,
2013-03-10 07:14:00,48.7,20.0,30.16,NNE,12,3.0,9.0,32,0.00,,,0.00,weatherlink.com 1.10,2013-03-10 11:14:00,
2013-03-10 07:34:00,48.7,21.0,30.16,SE,134,2.0,14.0,33,0.00,,,0.00,weatherlink.com 1.10,2013-03-10 11:34:00,
2013-03-10 07:52:00,48.8,21.0,30.16,NW,311,5.0,13.0,33,0.00,,,0.00,weatherlink.com 1.10,2013-03-10 11:52:00,
2013-03-10 08:10:00,49.1,21.0,30.16,NW,308,4.0,11.0,33,0.00,,,0.00,weatherlink.com 1.10,2013-03-10 12:10:00,
2013-03-10 08:30:00,49.5,21.0,30.16,West,281,5.0,13.0,33,0.00,,,0.00,weatherlink.com 1.10,2013-03-10 12:30:00,
2013-03-10 08:48:00,49.3,22.0,30.16,WNW,285,5.0,10.0,34,0.00,,,0.00,weatherlink.com 1.10,2013-03-10 12:48:00,
2013-03-10 09:06:00,50.1,22.0,30.16,WNW,300,6.0,13.0,33,0.00,,,0.00,weatherlink.com 1.10,2013-03-10 13:06:00,
2013-03-10 09:26:00,50.9,23.0,30.16,WNW,295,4.0,12.0,33,0.00,,,0.00,weatherlink.com 1.10,2013-03-10 13:26:00,
2013-03-10 10:02:00,51.8,23.0,30.17,West,269,3.0,10.0,33,0.00,,,0.00,weatherlink.com 1.10,2013-03-10 14:02:00,
2013-03-10 10:20:00,53.7,24.0,30.16,West,259,3.0,9.0,32,0.00,,,0.00,weatherlink.com 1.10,2013-03-10 14:20:00,
2013-03-10 10:40:00,55.0,25.0,30.16,NNW,327,3.0,8.0,32,0.00,,,0.00,weatherlink.com 1.10,2013-03-10 14:40:00,
2013-03-10 10:57:00,55.9,25.0,30.17,West,277,1.0,9.0,30,0.00,,,0.00,weatherlink.com 1.10,2013-03-10 14:57:00,
2013-03-10 11:17:00,57.1,27.0,30.17,NE,53,2.0,7.0,31,0.00,,,0.00,weatherlink.com 1.10,2013-03-10 15:17:00,
2013-03-10 11:35:00,55.9,25.0,30.16,NNE,26,4.0,9.0,31,0.00,,,0.00,weatherlink.com 1.10,2013-03-10 15:35:00,
2013-03-10 11:53:00,55.8,25.0,30.16,SW,217,3.0,10.0,31,0.00,,,0.00,weatherlink.com 1.10,2013-03-10 15:53:00,
2013-03-10 12:13:00,57.2,26.0,30.15,West,269,2.0,9.0,30,0.00,,,0.00,weatherlink.com 1.10,2013-03-10 16:13:00,
2013-03-10 12:31:00,60.9,29.0,30.15,WSW,248,3.0,7.0,30,0.00,,,0.00,weatherlink.com 1.10,2013-03-10 16:31:00,
2013-03-10 12:49:00,62.7,28.0,30.16,North,8,2.0,10.0,27,0.00,,,0.00,weatherlink.com 1.10,2013-03-10 16:49:00,
2013-03-10 13:07:00,63.1,29.0,30.15,NNW,332,4.0,10.0,28,0.00,,,0.00,weatherlink.com 1.10,2013-03-10 17:07:00,
2013-03-10 13:27:00,63.0,29.0,30.14,WNW,295,6.0,7.0,28,0.00,,,0.00,weatherlink.com 1.10,2013-03-10 17:27:00,
2013-03-10 13:45:00,63.8,29.0,30.13,West,281,3.0,9.0,27,0.00,,,0.00,weatherlink.com 1.10,2013-03-10 17:45:00,
2013-03-10 14:03:00,60.9,27.0,30.12,NNW,345,6.0,10.0,28,0.00,,,0.00,weatherlink.com 1.10,2013-03-10 18:03:00,
2013-03-10 14:23:00,62.2,29.0,30.11,NNW,330,3.0,11.0,29,0.00,,,0.00,weatherlink.com 1.10,2013-03-10 18:23:00,
2013-03-10 14:41:00,62.8,28.0,30.10,NW,323,7.0,9.0,27,0.00,,,0.00,weatherlink.com 1.10,2013-03-10 18:41:00,
2013-03-10 14:59:00,64.4,30.0,30.10,NW,319,4.0,7.0,27,0.00,,,0.00,weatherlink.com 1.10,2013-03-10 18:59:00,
2013-03-10 15:18:00,64.5,31.0,30.09,NNW,333,2.0,10.0,29,0.00,,,0.00,weatherlink.com 1.10,2013-03-10 19:18:00,
2013-03-10 15:36:00,64.7,30.0,30.08,WNW,292,4.0,11.0,27,0.00,,,0.00,weatherlink.com 1.10,2013-03-10 19:36:00,
2013-03-10 15:54:00,64.9,30.0,30.07,WNW,294,6.0,10.0,27,0.00,,,0.00,weatherlink.com 1.10,2013-03-10 19:54:00,
2013-03-10 16:14:00,63.3,29.0,30.07,WSW,243,9.0,13.0,28,0.00,,,0.00,weatherlink.com 1.10,2013-03-10 20:14:00,
2013-03-10 16:50:00,62.5,31.0,30.07,NW,306,0.0,11.0,30,0.00,,,0.00,weatherlink.com 1.10,2013-03-10 20:50:00,
2013-03-10 17:09:00,62.5,31.0,30.06,West,280,2.0,7.0,31,0.00,,,0.00,weatherlink.com 1.10,2013-03-10 21:09:00,
2013-03-10 17:27:00,62.5,31.0,30.05,West,263,2.0,9.0,30,0.00,,,0.00,weatherlink.com 1.10,2013-03-10 21:27:00,
2013-03-10 17:47:00,61.6,30.0,30.04,NW,323,3.0,9.0,30,0.00,,,0.00,weatherlink.com 1.10,2013-03-10 21:47:00,
2013-03-10 18:05:00,61.0,30.0,30.03,West,274,3.0,12.0,31,0.00,,,0.00,weatherlink.com 1.10,2013-03-10 22:05:00,
2013-03-10 18:23:00,60.5,30.0,30.02,NW,326,6.0,13.0,32,0.00,,,0.00,weatherlink.com 1.10,2013-03-10 22:23:00,
2013-03-10 18:43:00,60.1,30.0,30.02,NW,316,3.0,13.0,32,0.00,,,0.00,weatherlink.com 1.10,2013-03-10 22:43:00,
2013-03-10 19:01:00,59.8,30.0,30.03,NW,319,6.0,12.0,33,0.00,,,0.00,weatherlink.com 1.10,2013-03-10 23:01:00,
2013-03-10 19:19:00,59.8,30.0,30.03,West,271,12.0,15.0,33,0.00,,,0.00,weatherlink.com 1.10,2013-03-10 23:19:00,
2013-03-10 19:39:00,59.2,30.0,30.02,WNW,293,4.0,17.0,33,0.00,,,0.00,weatherlink.com 1.10,2013-03-10 23:39:00,
2013-03-10 19:57:00,58.7,29.0,30.02,NNW,342,13.0,18.0,33,0.00,,,0.00,weatherlink.com 1.10,2013-03-10 23:57:00,
2013-03-10 20:15:00,58.4,30.0,30.03,WNW,283,7.0,14.0,34,0.00,,,0.00,weatherlink.com 1.10,2013-03-11 00:15:00,
2013-03-10 20:33:00,58.0,30.0,30.03,NNW,333,3.0,19.0,34,0.00,,,0.00,weatherlink.com 1.10,2013-03-11 00:33:00,
2013-03-10 20:53:00,58.0,30.0,30.05,WNW,302,2.0,13.0,35,0.00,,,0.00,weatherlink.com 1.10,2013-03-11 00:53:00,
2013-03-10 21:11:00,57.6,30.0,30.04,NNW,341,5.0,16.0,35,0.00,,,0.00,weatherlink.com 1.10,2013-03-11 01:11:00,
2013-03-10 21:29:00,57.2,30.0,30.02,NW,304,7.0,15.0,36,0.00,,,0.00,weatherlink.com 1.10,2013-03-11 01:29:00,
2013-03-10 21:49:00,57.2,30.0,30.01,NW,317,8.0,23.0,35,0.00,,,0.00,weatherlink.com 1.10,2013-03-11 01:49:00,
2013-03-10 22:07:00,56.5,30.0,30.00,NW,312,7.0,18.0,37,0.00,,,0.00,weatherlink.com 1.10,2013-03-11 02:07:00,
2013-03-10 22:25:00,56.7,30.0,30.00,NW,314,10.0,20.0,36,0.00,,,0.00,weatherlink.com 1.10,2013-03-11 02:25:00,
2013-03-10 22:43:00,56.0,30.0,30.02,West,276,4.0,14.0,37,0.00,,,0.00,weatherlink.com 1.10,2013-03-11 02:43:00,
2013-03-10 23:02:00,55.7,30.0,30.01,NNW,328,6.0,19.0,37,0.00,,,0.00,weatherlink.com 1.10,2013-03-11 03:02:00,
2013-03-10 23:22:00,55.5,29.0,29.99,North,4,6.0,18.0,37,0.00,,,0.00,weatherlink.com 1.10,2013-03-11 03:22:00,
2013-03-10 23:40:00,55.3,30.0,29.99,WNW,284,5.0,19.0,38,0.00,,,0.00,weatherlink.com 1.10,2013-03-11 03:40:00,
2013-03-10 23:58:00,55.3,29.0,30.01,South,169,3.0,10.0,37,0.00,,,0.00,weatherlink.com 1.10,2013-03-11 03:58:00,